sensor_id;sensor_type;location;lat;lon;timestamp;P1;durP1;ratioP1;P2;durP2;ratioP2
5245;SDS011;54412;51.206;6.888;2022-10-16T00:01:18;4.90;;;2.47;;
5245;SDS011;54412;51.206;6.888;2022-10-16T00:03:47;2.70;;;2.50;;
5245;SDS011;54412;51.206;6.888;2022-10-16T00:06:14;3.07;;;2.67;;
5245;SDS011;54412;51.206;6.888;2022-10-16T00:08:43;11.20;;;2.33;;
5245;SDS011;54412;51.206;6.888;2022-10-16T00:11:11;3.00;;;2.80;;
5245;SDS011;54412;51.206;6.888;2022-10-16T00:13:42;3.47;;;2.33;;
5245;SDS011;54412;51.206;6.888;2022-10-16T00:16:10;8.37;;;2.40;;
5245;SDS011;54412;51.206;6.888;2022-10-16T00:18:38;3.40;;;2.40;;
5245;SDS011;54412;51.206;6.888;2022-10-16T00:21:15;2.67;;;2.57;;
5245;SDS011;54412;51.206;6.888;2022-10-16T00:23:45;3.10;;;1.83;;
5245;SDS011;54412;51.206;6.888;2022-10-16T00:26:12;6.83;;;2.03;;
5245;SDS011;54412;51.206;6.888;2022-10-16T00:28:41;7.03;;;2.07;;
5245;SDS011;54412;51.206;6.888;2022-10-16T00:31:07;3.77;;;2.03;;
5245;SDS011;54412;51.206;6.888;2022-10-16T00:33:36;4.10;;;2.30;;
5245;SDS011;54412;51.206;6.888;2022-10-16T00:36:04;5.63;;;2.60;;
5245;SDS011;54412;51.206;6.888;2022-10-16T00:38:31;3.60;;;1.70;;
5245;SDS011;54412;51.206;6.888;2022-10-16T00:40:57;3.37;;;1.73;;
5245;SDS011;54412;51.206;6.888;2022-10-16T00:43:40;2.40;;;2.20;;
5245;SDS011;54412;51.206;6.888;2022-10-16T00:46:19;1.90;;;1.60;;
5245;SDS011;54412;51.206;6.888;2022-10-16T00:49:05;1.70;;;1.60;;
5245;SDS011;54412;51.206;6.888;2022-10-16T00:51:40;3.47;;;1.50;;
5245;SDS011;54412;51.206;6.888;2022-10-16T00:54:12;3.53;;;1.70;;
5245;SDS011;54412;51.206;6.888;2022-10-16T00:56:52;2.00;;;1.90;;
5245;SDS011;54412;51.206;6.888;2022-10-16T01:01:55;6.10;;;1.90;;
5245;SDS011;54412;51.206;6.888;2022-10-16T01:04:23;7.83;;;2.10;;
5245;SDS011;54412;51.206;6.888;2022-10-16T01:12:10;4.47;;;2.63;;
5245;SDS011;54412;51.206;6.888;2022-10-16T01:14:55;2.57;;;2.10;;
5245;SDS011;54412;51.206;6.888;2022-10-16T01:17:34;6.40;;;2.67;;
5245;SDS011;54412;51.206;6.888;2022-10-16T01:23:20;2.70;;;2.40;;
5245;SDS011;54412;51.206;6.888;2022-10-16T01:25:56;6.23;;;2.60;;
5245;SDS011;54412;51.206;6.888;2022-10-16T01:29:08;3.30;;;3.00;;
5245;SDS011;54412;51.206;6.888;2022-10-16T01:32:02;3.27;;;2.40;;
5245;SDS011;54412;51.206;6.888;2022-10-16T01:34:45;3.43;;;2.17;;
5245;SDS011;54412;51.206;6.888;2022-10-16T01:37:29;2.90;;;2.33;;
5245;SDS011;54412;51.206;6.888;2022-10-16T01:40:27;8.67;;;2.60;;
5245;SDS011;54412;51.206;6.888;2022-10-16T01:43:17;2.57;;;2.20;;
5245;SDS011;54412;51.206;6.888;2022-10-16T01:45:49;1.97;;;1.97;;
5245;SDS011;54412;51.206;6.888;2022-10-16T01:48:18;4.70;;;2.50;;
5245;SDS011;54412;51.206;6.888;2022-10-16T01:50:54;5.40;;;2.23;;
5245;SDS011;54412;51.206;6.888;2022-10-16T01:53:46;4.10;;;2.23;;
5245;SDS011;54412;51.206;6.888;2022-10-16T01:56:17;3.13;;;2.13;;
5245;SDS011;54412;51.206;6.888;2022-10-16T01:58:49;9.07;;;2.70;;
5245;SDS011;54412;51.206;6.888;2022-10-16T02:01:23;3.63;;;2.70;;
5245;SDS011;54412;51.206;6.888;2022-10-16T02:03:54;2.13;;;2.03;;
5245;SDS011;54412;51.206;6.888;2022-10-16T02:06:26;4.00;;;1.80;;
5245;SDS011;54412;51.206;6.888;2022-10-16T02:08:53;4.60;;;2.10;;
5245;SDS011;54412;51.206;6.888;2022-10-16T02:11:19;2.60;;;1.53;;
5245;SDS011;54412;51.206;6.888;2022-10-16T02:13:48;1.70;;;1.60;;
5245;SDS011;54412;51.206;6.888;2022-10-16T02:16:32;2.37;;;2.20;;
5245;SDS011;54412;51.206;6.888;2022-10-16T02:19:10;3.97;;;2.20;;
5245;SDS011;54412;51.206;6.888;2022-10-16T02:21:43;2.03;;;1.93;;
5245;SDS011;54412;51.206;6.888;2022-10-16T02:24:34;5.30;;;2.03;;
5245;SDS011;54412;51.206;6.888;2022-10-16T02:27:20;3.30;;;1.90;;
5245;SDS011;54412;51.206;6.888;2022-10-16T02:30:05;4.87;;;2.50;;
5245;SDS011;54412;51.206;6.888;2022-10-16T02:33:01;4.23;;;2.03;;
5245;SDS011;54412;51.206;6.888;2022-10-16T02:35:31;4.40;;;2.30;;
5245;SDS011;54412;51.206;6.888;2022-10-16T02:37:57;2.23;;;2.13;;
5245;SDS011;54412;51.206;6.888;2022-10-16T02:40:24;2.03;;;1.80;;
5245;SDS011;54412;51.206;6.888;2022-10-16T02:42:52;5.73;;;2.23;;
5245;SDS011;54412;51.206;6.888;2022-10-16T02:45:19;6.37;;;2.23;;
5245;SDS011;54412;51.206;6.888;2022-10-16T02:47:46;2.00;;;1.90;;
5245;SDS011;54412;51.206;6.888;2022-10-16T02:50:12;7.03;;;2.10;;
5245;SDS011;54412;51.206;6.888;2022-10-16T02:52:38;2.13;;;1.93;;
5245;SDS011;54412;51.206;6.888;2022-10-16T02:55:04;4.17;;;2.07;;
5245;SDS011;54412;51.206;6.888;2022-10-16T02:57:30;2.60;;;1.83;;
5245;SDS011;54412;51.206;6.888;2022-10-16T02:59:56;1.93;;;1.73;;
5245;SDS011;54412;51.206;6.888;2022-10-16T03:02:23;5.33;;;1.90;;
5245;SDS011;54412;51.206;6.888;2022-10-16T03:04:49;2.63;;;2.03;;
5245;SDS011;54412;51.206;6.888;2022-10-16T03:07:14;2.30;;;1.80;;
5245;SDS011;54412;51.206;6.888;2022-10-16T03:09:40;1.80;;;1.80;;
5245;SDS011;54412;51.206;6.888;2022-10-16T03:12:06;1.67;;;1.57;;
5245;SDS011;54412;51.206;6.888;2022-10-16T03:14:32;2.30;;;1.70;;
5245;SDS011;54412;51.206;6.888;2022-10-16T03:16:58;3.93;;;2.17;;
5245;SDS011;54412;51.206;6.888;2022-10-16T03:19:24;1.80;;;1.70;;
5245;SDS011;54412;51.206;6.888;2022-10-16T03:21:49;6.40;;;1.87;;
5245;SDS011;54412;51.206;6.888;2022-10-16T03:24:15;3.37;;;1.43;;
5245;SDS011;54412;51.206;6.888;2022-10-16T03:26:41;2.83;;;1.80;;
5245;SDS011;54412;51.206;6.888;2022-10-16T03:29:06;2.03;;;1.93;;
5245;SDS011;54412;51.206;6.888;2022-10-16T03:31:32;1.40;;;1.40;;
5245;SDS011;54412;51.206;6.888;2022-10-16T03:33:58;3.47;;;1.67;;
5245;SDS011;54412;51.206;6.888;2022-10-16T03:36:24;1.50;;;1.47;;
5245;SDS011;54412;51.206;6.888;2022-10-16T03:38:50;2.93;;;1.57;;
5245;SDS011;54412;51.206;6.888;2022-10-16T03:41:15;3.07;;;2.40;;
5245;SDS011;54412;51.206;6.888;2022-10-16T03:43:41;4.03;;;2.17;;
5245;SDS011;54412;51.206;6.888;2022-10-16T03:46:07;1.47;;;1.33;;
5245;SDS011;54412;51.206;6.888;2022-10-16T03:48:33;1.90;;;1.43;;
5245;SDS011;54412;51.206;6.888;2022-10-16T03:50:58;2.17;;;1.73;;
5245;SDS011;54412;51.206;6.888;2022-10-16T03:53:24;1.70;;;1.60;;
5245;SDS011;54412;51.206;6.888;2022-10-16T03:55:50;3.00;;;1.63;;
5245;SDS011;54412;51.206;6.888;2022-10-16T03:58:16;1.67;;;1.00;;
5245;SDS011;54412;51.206;6.888;2022-10-16T04:00:42;1.23;;;1.23;;
5245;SDS011;54412;51.206;6.888;2022-10-16T04:03:09;1.50;;;1.40;;
5245;SDS011;54412;51.206;6.888;2022-10-16T04:05:36;1.17;;;1.13;;
5245;SDS011;54412;51.206;6.888;2022-10-16T04:08:02;1.67;;;1.10;;
5245;SDS011;54412;51.206;6.888;2022-10-16T04:10:28;1.33;;;1.23;;
5245;SDS011;54412;51.206;6.888;2022-10-16T04:12:54;1.17;;;1.17;;
5245;SDS011;54412;51.206;6.888;2022-10-16T04:15:21;2.90;;;1.00;;
5245;SDS011;54412;51.206;6.888;2022-10-16T04:17:48;2.30;;;1.10;;
5245;SDS011;54412;51.206;6.888;2022-10-16T04:20:14;2.73;;;1.00;;
5245;SDS011;54412;51.206;6.888;2022-10-16T04:22:39;2.90;;;1.37;;
5245;SDS011;54412;51.206;6.888;2022-10-16T04:25:05;1.60;;;1.03;;
5245;SDS011;54412;51.206;6.888;2022-10-16T04:27:31;1.90;;;0.90;;
5245;SDS011;54412;51.206;6.888;2022-10-16T04:29:58;0.97;;;0.97;;
5245;SDS011;54412;51.206;6.888;2022-10-16T04:32:25;1.50;;;1.20;;
5245;SDS011;54412;51.206;6.888;2022-10-16T04:34:51;1.27;;;1.00;;
5245;SDS011;54412;51.206;6.888;2022-10-16T04:37:17;2.80;;;1.27;;
5245;SDS011;54412;51.206;6.888;2022-10-16T04:39:43;0.90;;;0.90;;
5245;SDS011;54412;51.206;6.888;2022-10-16T04:42:09;1.13;;;1.03;;
5245;SDS011;54412;51.206;6.888;2022-10-16T04:44:36;1.00;;;1.00;;
5245;SDS011;54412;51.206;6.888;2022-10-16T04:47:01;3.13;;;0.90;;
5245;SDS011;54412;51.206;6.888;2022-10-16T04:49:27;1.87;;;1.33;;
5245;SDS011;54412;51.206;6.888;2022-10-16T04:51:53;2.00;;;1.13;;
5245;SDS011;54412;51.206;6.888;2022-10-16T04:54:19;2.00;;;1.10;;
5245;SDS011;54412;51.206;6.888;2022-10-16T04:56:44;2.90;;;1.10;;
5245;SDS011;54412;51.206;6.888;2022-10-16T04:59:15;1.80;;;1.17;;
5245;SDS011;54412;51.206;6.888;2022-10-16T05:01:43;1.47;;;1.37;;
5245;SDS011;54412;51.206;6.888;2022-10-16T05:04:09;2.13;;;1.10;;
5245;SDS011;54412;51.206;6.888;2022-10-16T05:06:35;1.20;;;1.10;;
5245;SDS011;54412;51.206;6.888;2022-10-16T05:09:03;4.30;;;1.20;;
5245;SDS011;54412;51.206;6.888;2022-10-16T05:11:30;2.70;;;1.17;;
5245;SDS011;54412;51.206;6.888;2022-10-16T05:13:56;1.20;;;1.20;;
5245;SDS011;54412;51.206;6.888;2022-10-16T05:16:22;1.07;;;1.00;;
5245;SDS011;54412;51.206;6.888;2022-10-16T05:18:47;3.97;;;1.13;;
5245;SDS011;54412;51.206;6.888;2022-10-16T05:21:13;5.33;;;1.10;;
5245;SDS011;54412;51.206;6.888;2022-10-16T05:23:39;1.10;;;1.10;;
5245;SDS011;54412;51.206;6.888;2022-10-16T05:26:05;4.83;;;1.50;;
5245;SDS011;54412;51.206;6.888;2022-10-16T05:28:30;3.80;;;1.70;;
5245;SDS011;54412;51.206;6.888;2022-10-16T05:30:56;1.73;;;1.30;;
5245;SDS011;54412;51.206;6.888;2022-10-16T05:33:23;3.70;;;1.30;;
5245;SDS011;54412;51.206;6.888;2022-10-16T05:35:50;1.47;;;1.10;;
5245;SDS011;54412;51.206;6.888;2022-10-16T05:38:17;1.23;;;1.00;;
5245;SDS011;54412;51.206;6.888;2022-10-16T05:40:43;0.93;;;0.90;;
5245;SDS011;54412;51.206;6.888;2022-10-16T05:43:15;3.03;;;1.20;;
5245;SDS011;54412;51.206;6.888;2022-10-16T05:45:41;0.97;;;0.93;;
5245;SDS011;54412;51.206;6.888;2022-10-16T05:48:07;1.40;;;1.30;;
5245;SDS011;54412;51.206;6.888;2022-10-16T05:50:32;6.50;;;1.17;;
5245;SDS011;54412;51.206;6.888;2022-10-16T05:52:58;2.23;;;1.27;;
5245;SDS011;54412;51.206;6.888;2022-10-16T05:55:24;3.80;;;1.30;;
5245;SDS011;54412;51.206;6.888;2022-10-16T05:57:49;3.93;;;1.20;;
5245;SDS011;54412;51.206;6.888;2022-10-16T06:00:15;1.10;;;1.10;;
5245;SDS011;54412;51.206;6.888;2022-10-16T06:02:40;7.37;;;1.40;;
5245;SDS011;54412;51.206;6.888;2022-10-16T06:05:06;5.73;;;1.23;;
5245;SDS011;54412;51.206;6.888;2022-10-16T06:07:35;1.00;;;1.00;;
5245;SDS011;54412;51.206;6.888;2022-10-16T06:10:01;3.70;;;1.13;;
5245;SDS011;54412;51.206;6.888;2022-10-16T06:12:28;1.07;;;1.00;;
5245;SDS011;54412;51.206;6.888;2022-10-16T06:14:54;1.23;;;1.20;;
5245;SDS011;54412;51.206;6.888;2022-10-16T06:17:20;1.33;;;1.23;;
5245;SDS011;54412;51.206;6.888;2022-10-16T06:19:45;1.30;;;0.97;;
5245;SDS011;54412;51.206;6.888;2022-10-16T06:22:11;1.10;;;1.03;;
5245;SDS011;54412;51.206;6.888;2022-10-16T06:24:37;3.97;;;1.20;;
5245;SDS011;54412;51.206;6.888;2022-10-16T06:27:03;1.00;;;0.90;;
5245;SDS011;54412;51.206;6.888;2022-10-16T06:29:29;1.80;;;1.20;;
5245;SDS011;54412;51.206;6.888;2022-10-16T06:31:55;1.53;;;1.47;;
5245;SDS011;54412;51.206;6.888;2022-10-16T06:34:21;2.30;;;1.50;;
5245;SDS011;54412;51.206;6.888;2022-10-16T06:36:46;2.20;;;1.27;;
5245;SDS011;54412;51.206;6.888;2022-10-16T06:39:12;2.53;;;1.40;;
5245;SDS011;54412;51.206;6.888;2022-10-16T06:41:38;1.10;;;1.10;;
5245;SDS011;54412;51.206;6.888;2022-10-16T06:44:06;7.80;;;1.10;;
5245;SDS011;54412;51.206;6.888;2022-10-16T06:46:32;1.93;;;1.00;;
5245;SDS011;54412;51.206;6.888;2022-10-16T06:48:59;1.10;;;1.10;;
5245;SDS011;54412;51.206;6.888;2022-10-16T06:51:24;1.43;;;1.10;;
5245;SDS011;54412;51.206;6.888;2022-10-16T06:53:51;9.33;;;2.27;;
5245;SDS011;54412;51.206;6.888;2022-10-16T06:56:25;3.80;;;1.20;;
5245;SDS011;54412;51.206;6.888;2022-10-16T06:58:53;2.50;;;1.20;;
5245;SDS011;54412;51.206;6.888;2022-10-16T07:01:19;1.37;;;1.27;;
5245;SDS011;54412;51.206;6.888;2022-10-16T07:03:47;1.77;;;1.30;;
5245;SDS011;54412;51.206;6.888;2022-10-16T07:06:15;3.80;;;1.33;;
5245;SDS011;54412;51.206;6.888;2022-10-16T07:08:44;1.70;;;1.60;;
5245;SDS011;54412;51.206;6.888;2022-10-16T07:11:12;5.50;;;1.30;;
5245;SDS011;54412;51.206;6.888;2022-10-16T07:13:42;1.30;;;1.20;;
5245;SDS011;54412;51.206;6.888;2022-10-16T07:16:19;1.60;;;1.43;;
5245;SDS011;54412;51.206;6.888;2022-10-16T07:18:49;1.70;;;1.40;;
5245;SDS011;54412;51.206;6.888;2022-10-16T07:21:17;4.83;;;1.43;;
5245;SDS011;54412;51.206;6.888;2022-10-16T07:23:51;2.00;;;1.47;;
5245;SDS011;54412;51.206;6.888;2022-10-16T07:26:18;1.63;;;1.53;;
5245;SDS011;54412;51.206;6.888;2022-10-16T07:28:44;2.03;;;1.20;;
5245;SDS011;54412;51.206;6.888;2022-10-16T07:31:11;1.07;;;0.97;;
5245;SDS011;54412;51.206;6.888;2022-10-16T07:33:39;3.40;;;2.17;;
5245;SDS011;54412;51.206;6.888;2022-10-16T07:36:09;1.30;;;1.20;;
5245;SDS011;54412;51.206;6.888;2022-10-16T07:38:36;1.30;;;1.20;;
5245;SDS011;54412;51.206;6.888;2022-10-16T07:41:04;9.73;;;1.80;;
5245;SDS011;54412;51.206;6.888;2022-10-16T07:43:32;1.50;;;1.33;;
5245;SDS011;54412;51.206;6.888;2022-10-16T07:45:58;6.13;;;1.30;;
5245;SDS011;54412;51.206;6.888;2022-10-16T07:48:26;3.77;;;1.43;;
5245;SDS011;54412;51.206;6.888;2022-10-16T07:50:58;2.47;;;1.50;;
5245;SDS011;54412;51.206;6.888;2022-10-16T07:53:30;3.13;;;1.60;;
5245;SDS011;54412;51.206;6.888;2022-10-16T07:56:00;5.83;;;1.57;;
5245;SDS011;54412;51.206;6.888;2022-10-16T07:58:28;4.20;;;1.10;;
5245;SDS011;54412;51.206;6.888;2022-10-16T08:00:54;1.30;;;1.20;;
5245;SDS011;54412;51.206;6.888;2022-10-16T08:03:21;1.70;;;1.30;;
5245;SDS011;54412;51.206;6.888;2022-10-16T08:05:48;4.97;;;1.50;;
5245;SDS011;54412;51.206;6.888;2022-10-16T08:08:14;2.70;;;0.97;;
5245;SDS011;54412;51.206;6.888;2022-10-16T08:10:41;3.70;;;1.40;;
5245;SDS011;54412;51.206;6.888;2022-10-16T08:13:07;1.40;;;1.30;;
5245;SDS011;54412;51.206;6.888;2022-10-16T08:15:32;1.57;;;0.90;;
5245;SDS011;54412;51.206;6.888;2022-10-16T08:17:59;4.50;;;1.00;;
5245;SDS011;54412;51.206;6.888;2022-10-16T08:20:29;1.03;;;1.03;;
5245;SDS011;54412;51.206;6.888;2022-10-16T08:22:56;1.27;;;0.90;;
5245;SDS011;54412;51.206;6.888;2022-10-16T08:25:23;1.30;;;1.30;;
5245;SDS011;54412;51.206;6.888;2022-10-16T08:27:49;3.43;;;1.37;;
5245;SDS011;54412;51.206;6.888;2022-10-16T08:30:16;3.20;;;1.13;;
5245;SDS011;54412;51.206;6.888;2022-10-16T08:32:44;3.90;;;1.37;;
5245;SDS011;54412;51.206;6.888;2022-10-16T08:35:11;3.20;;;0.70;;
5245;SDS011;54412;51.206;6.888;2022-10-16T08:37:40;2.00;;;1.40;;
5245;SDS011;54412;51.206;6.888;2022-10-16T08:40:07;1.23;;;1.13;;
5245;SDS011;54412;51.206;6.888;2022-10-16T08:43:11;2.40;;;1.33;;
5245;SDS011;54412;51.206;6.888;2022-10-16T08:49:03;1.47;;;1.00;;
5245;SDS011;54412;51.206;6.888;2022-10-16T08:51:38;1.40;;;1.30;;
5245;SDS011;54412;51.206;6.888;2022-10-16T08:54:26;4.10;;;1.33;;
5245;SDS011;54412;51.206;6.888;2022-10-16T08:57:09;1.07;;;0.77;;
5245;SDS011;54412;51.206;6.888;2022-10-16T08:59:44;2.83;;;0.93;;
5245;SDS011;54412;51.206;6.888;2022-10-16T09:02:24;2.10;;;0.90;;
5245;SDS011;54412;51.206;6.888;2022-10-16T09:11:21;2.63;;;1.03;;
5245;SDS011;54412;51.206;6.888;2022-10-16T09:14:28;4.77;;;1.23;;
5245;SDS011;54412;51.206;6.888;2022-10-16T09:16:50;1.43;;;0.93;;
5245;SDS011;54412;51.206;6.888;2022-10-16T09:19:33;2.47;;;0.90;;
5245;SDS011;54412;51.206;6.888;2022-10-16T09:22:15;1.57;;;0.80;;
5245;SDS011;54412;51.206;6.888;2022-10-16T09:24:43;2.03;;;0.90;;
5245;SDS011;54412;51.206;6.888;2022-10-16T09:27:12;9.60;;;0.90;;
5245;SDS011;54412;51.206;6.888;2022-10-16T09:29:40;1.13;;;0.80;;
5245;SDS011;54412;51.206;6.888;2022-10-16T09:32:08;4.97;;;1.10;;
5245;SDS011;54412;51.206;6.888;2022-10-16T09:34:45;3.00;;;1.00;;
5245;SDS011;54412;51.206;6.888;2022-10-16T09:37:17;0.77;;;0.77;;
5245;SDS011;54412;51.206;6.888;2022-10-16T09:39:47;4.07;;;1.10;;
5245;SDS011;54412;51.206;6.888;2022-10-16T09:42:17;3.13;;;1.03;;
5245;SDS011;54412;51.206;6.888;2022-10-16T09:44:47;2.47;;;1.20;;
5245;SDS011;54412;51.206;6.888;2022-10-16T09:47:25;1.60;;;1.00;;
5245;SDS011;54412;51.206;6.888;2022-10-16T09:49:57;1.73;;;1.10;;
5245;SDS011;54412;51.206;6.888;2022-10-16T09:52:27;1.67;;;0.90;;
5245;SDS011;54412;51.206;6.888;2022-10-16T09:54:55;2.13;;;0.97;;
5245;SDS011;54412;51.206;6.888;2022-10-16T09:57:28;2.47;;;1.00;;
5245;SDS011;54412;51.206;6.888;2022-10-16T09:59:56;2.43;;;1.07;;
5245;SDS011;54412;51.206;6.888;2022-10-16T10:02:28;1.27;;;0.70;;
5245;SDS011;54412;51.206;6.888;2022-10-16T10:05:01;11.47;;;1.20;;
5245;SDS011;54412;51.206;6.888;2022-10-16T10:07:31;0.97;;;0.73;;
5245;SDS011;54412;51.206;6.888;2022-10-16T10:10:04;6.17;;;1.20;;
5245;SDS011;54412;51.206;6.888;2022-10-16T10:12:42;4.67;;;1.10;;
5245;SDS011;54412;51.206;6.888;2022-10-16T10:15:10;4.30;;;0.87;;
5245;SDS011;54412;51.206;6.888;2022-10-16T10:17:45;9.27;;;0.83;;
5245;SDS011;54412;51.206;6.888;2022-10-16T10:22:52;4.90;;;0.90;;
5245;SDS011;54412;51.206;6.888;2022-10-16T10:25:31;3.50;;;1.30;;
5245;SDS011;54412;51.206;6.888;2022-10-16T10:37:09;2.60;;;0.80;;
5245;SDS011;54412;51.206;6.888;2022-10-16T10:39:57;5.87;;;1.07;;
5245;SDS011;54412;51.206;6.888;2022-10-16T10:42:36;5.87;;;0.90;;
5245;SDS011;54412;51.206;6.888;2022-10-16T10:45:52;0.90;;;0.70;;
5245;SDS011;54412;51.206;6.888;2022-10-16T10:57:01;2.17;;;1.00;;
5245;SDS011;54412;51.206;6.888;2022-10-16T11:02:24;1.27;;;0.77;;
5245;SDS011;54412;51.206;6.888;2022-10-16T11:08:02;8.27;;;1.00;;
5245;SDS011;54412;51.206;6.888;2022-10-16T11:10:59;4.27;;;2.50;;
5245;SDS011;54412;51.206;6.888;2022-10-16T11:16:30;5.40;;;1.17;;
5245;SDS011;54412;51.206;6.888;2022-10-16T11:19:12;3.27;;;0.80;;
5245;SDS011;54412;51.206;6.888;2022-10-16T11:21:59;3.40;;;1.40;;
5245;SDS011;54412;51.206;6.888;2022-10-16T11:24:41;7.70;;;1.53;;
5245;SDS011;54412;51.206;6.888;2022-10-16T11:27:22;5.47;;;1.57;;
5245;SDS011;54412;51.206;6.888;2022-10-16T11:30:05;2.80;;;1.10;;
5245;SDS011;54412;51.206;6.888;2022-10-16T11:35:57;2.93;;;0.83;;
5245;SDS011;54412;51.206;6.888;2022-10-16T11:38:43;1.73;;;0.80;;
5245;SDS011;54412;51.206;6.888;2022-10-16T11:41:32;1.13;;;0.87;;
5245;SDS011;54412;51.206;6.888;2022-10-16T11:44:34;5.70;;;1.03;;
5245;SDS011;54412;51.206;6.888;2022-10-16T11:50:28;2.40;;;0.83;;
5245;SDS011;54412;51.206;6.888;2022-10-16T11:53:13;1.77;;;1.17;;
5245;SDS011;54412;51.206;6.888;2022-10-16T11:55:48;8.43;;;0.90;;
5245;SDS011;54412;51.206;6.888;2022-10-16T12:01:36;1.60;;;0.70;;
5245;SDS011;54412;51.206;6.888;2022-10-16T12:04:22;2.10;;;0.97;;
5245;SDS011;54412;51.206;6.888;2022-10-16T12:07:14;6.00;;;0.70;;
5245;SDS011;54412;51.206;6.888;2022-10-16T12:09:47;2.53;;;0.93;;
5245;SDS011;54412;51.206;6.888;2022-10-16T12:15:00;2.10;;;1.00;;
5245;SDS011;54412;51.206;6.888;2022-10-16T12:17:47;2.97;;;1.10;;
5245;SDS011;54412;51.206;6.888;2022-10-16T12:25:27;3.13;;;0.90;;
5245;SDS011;54412;51.206;6.888;2022-10-16T12:30:30;4.73;;;1.47;;
5245;SDS011;54412;51.206;6.888;2022-10-16T12:33:01;2.33;;;0.70;;
5245;SDS011;54412;51.206;6.888;2022-10-16T12:35:44;2.83;;;0.70;;
5245;SDS011;54412;51.206;6.888;2022-10-16T12:40:59;3.43;;;0.47;;
5245;SDS011;54412;51.206;6.888;2022-10-16T12:46:05;1.37;;;0.73;;
5245;SDS011;54412;51.206;6.888;2022-10-16T12:48:46;2.20;;;0.70;;
5245;SDS011;54412;51.206;6.888;2022-10-16T12:51:33;1.80;;;0.60;;
5245;SDS011;54412;51.206;6.888;2022-10-16T13:14:09;2.60;;;1.10;;
5245;SDS011;54412;51.206;6.888;2022-10-16T13:17:16;1.17;;;0.70;;
5245;SDS011;54412;51.206;6.888;2022-10-16T13:20:03;4.73;;;1.00;;
5245;SDS011;54412;51.206;6.888;2022-10-16T13:28:34;2.30;;;0.57;;
5245;SDS011;54412;51.206;6.888;2022-10-16T13:31:03;0.93;;;0.70;;
5245;SDS011;54412;51.206;6.888;2022-10-16T13:36:01;2.17;;;1.20;;
5245;SDS011;54412;51.206;6.888;2022-10-16T13:38:33;1.97;;;0.70;;
5245;SDS011;54412;51.206;6.888;2022-10-16T13:43:32;1.90;;;0.90;;
5245;SDS011;54412;51.206;6.888;2022-10-16T13:46:03;5.80;;;0.90;;
5245;SDS011;54412;51.206;6.888;2022-10-16T13:48:36;5.23;;;1.00;;
5245;SDS011;54412;51.206;6.888;2022-10-16T13:51:03;2.33;;;0.70;;
5245;SDS011;54412;51.206;6.888;2022-10-16T13:53:37;1.00;;;0.83;;
5245;SDS011;54412;51.206;6.888;2022-10-16T13:56:03;0.50;;;0.43;;
5245;SDS011;54412;51.206;6.888;2022-10-16T13:58:34;2.63;;;0.67;;
5245;SDS011;54412;51.206;6.888;2022-10-16T14:01:04;1.43;;;0.80;;
5245;SDS011;54412;51.206;6.888;2022-10-16T14:03:42;1.50;;;0.60;;
5245;SDS011;54412;51.206;6.888;2022-10-16T14:06:21;2.73;;;1.00;;
5245;SDS011;54412;51.206;6.888;2022-10-16T14:08:55;1.23;;;0.67;;
5245;SDS011;54412;51.206;6.888;2022-10-16T14:11:50;1.13;;;0.77;;
5245;SDS011;54412;51.206;6.888;2022-10-16T14:14:21;1.53;;;1.13;;
5245;SDS011;54412;51.206;6.888;2022-10-16T14:16:48;4.33;;;0.90;;
5245;SDS011;54412;51.206;6.888;2022-10-16T14:19:17;1.20;;;1.10;;
5245;SDS011;54412;51.206;6.888;2022-10-16T14:21:49;2.03;;;0.90;;
5245;SDS011;54412;51.206;6.888;2022-10-16T14:24:24;9.30;;;0.90;;
5245;SDS011;54412;51.206;6.888;2022-10-16T14:26:56;0.90;;;0.70;;
5245;SDS011;54412;51.206;6.888;2022-10-16T14:29:24;1.07;;;0.97;;
5245;SDS011;54412;51.206;6.888;2022-10-16T14:32:02;2.97;;;0.80;;
5245;SDS011;54412;51.206;6.888;2022-10-16T14:34:52;2.10;;;0.70;;
5245;SDS011;54412;51.206;6.888;2022-10-16T14:37:26;1.80;;;0.90;;
5245;SDS011;54412;51.206;6.888;2022-10-16T14:39:54;1.80;;;1.10;;
5245;SDS011;54412;51.206;6.888;2022-10-16T14:42:22;2.37;;;1.10;;
5245;SDS011;54412;51.206;6.888;2022-10-16T14:44:50;2.50;;;0.53;;
5245;SDS011;54412;51.206;6.888;2022-10-16T14:47:20;3.70;;;1.10;;
5245;SDS011;54412;51.206;6.888;2022-10-16T14:49:51;2.50;;;0.80;;
5245;SDS011;54412;51.206;6.888;2022-10-16T14:52:21;2.63;;;0.80;;
5245;SDS011;54412;51.206;6.888;2022-10-16T14:54:50;2.27;;;0.90;;
5245;SDS011;54412;51.206;6.888;2022-10-16T14:57:20;0.93;;;0.80;;
5245;SDS011;54412;51.206;6.888;2022-10-16T14:59:51;1.47;;;0.90;;
5245;SDS011;54412;51.206;6.888;2022-10-16T15:02:23;1.90;;;0.93;;
5245;SDS011;54412;51.206;6.888;2022-10-16T15:04:53;0.83;;;0.73;;
5245;SDS011;54412;51.206;6.888;2022-10-16T15:07:20;2.40;;;0.80;;
5245;SDS011;54412;51.206;6.888;2022-10-16T15:09:46;0.90;;;0.83;;
5245;SDS011;54412;51.206;6.888;2022-10-16T15:12:11;3.83;;;0.67;;
5245;SDS011;54412;51.206;6.888;2022-10-16T15:14:37;4.50;;;1.40;;
5245;SDS011;54412;51.206;6.888;2022-10-16T15:17:03;3.40;;;0.90;;
5245;SDS011;54412;51.206;6.888;2022-10-16T15:19:29;5.30;;;0.70;;
5245;SDS011;54412;51.206;6.888;2022-10-16T15:21:55;5.07;;;1.60;;
5245;SDS011;54412;51.206;6.888;2022-10-16T15:24:21;2.70;;;1.10;;
5245;SDS011;54412;51.206;6.888;2022-10-16T15:26:46;2.63;;;0.70;;
5245;SDS011;54412;51.206;6.888;2022-10-16T15:29:13;6.10;;;0.90;;
5245;SDS011;54412;51.206;6.888;2022-10-16T15:31:39;1.20;;;0.80;;
5245;SDS011;54412;51.206;6.888;2022-10-16T15:34:08;2.20;;;0.87;;
5245;SDS011;54412;51.206;6.888;2022-10-16T15:36:35;0.77;;;0.77;;
5245;SDS011;54412;51.206;6.888;2022-10-16T15:39:03;1.57;;;1.17;;
5245;SDS011;54412;51.206;6.888;2022-10-16T15:41:36;3.40;;;0.80;;
5245;SDS011;54412;51.206;6.888;2022-10-16T15:44:02;1.20;;;1.10;;
5245;SDS011;54412;51.206;6.888;2022-10-16T15:46:28;3.17;;;1.00;;
5245;SDS011;54412;51.206;6.888;2022-10-16T15:48:56;1.93;;;0.97;;
5245;SDS011;54412;51.206;6.888;2022-10-16T15:51:23;3.23;;;1.10;;
5245;SDS011;54412;51.206;6.888;2022-10-16T15:53:52;3.20;;;1.10;;
5245;SDS011;54412;51.206;6.888;2022-10-16T15:56:18;6.67;;;1.30;;
5245;SDS011;54412;51.206;6.888;2022-10-16T15:58:44;3.03;;;1.30;;
5245;SDS011;54412;51.206;6.888;2022-10-16T16:01:10;4.77;;;1.40;;
5245;SDS011;54412;51.206;6.888;2022-10-16T16:03:37;2.97;;;1.40;;
5245;SDS011;54412;51.206;6.888;2022-10-16T16:06:07;1.93;;;1.30;;
5245;SDS011;54412;51.206;6.888;2022-10-16T16:08:36;2.83;;;1.47;;
5245;SDS011;54412;51.206;6.888;2022-10-16T16:13:36;4.20;;;1.90;;
5245;SDS011;54412;51.206;6.888;2022-10-16T16:16:07;2.10;;;1.13;;
5245;SDS011;54412;51.206;6.888;2022-10-16T16:18:36;7.07;;;2.00;;
5245;SDS011;54412;51.206;6.888;2022-10-16T16:21:02;3.50;;;1.33;;
5245;SDS011;54412;51.206;6.888;2022-10-16T16:23:29;3.13;;;1.30;;
5245;SDS011;54412;51.206;6.888;2022-10-16T16:26:12;4.27;;;1.47;;
5245;SDS011;54412;51.206;6.888;2022-10-16T16:28:48;1.33;;;1.20;;
5245;SDS011;54412;51.206;6.888;2022-10-16T16:31:14;4.43;;;1.20;;
5245;SDS011;54412;51.206;6.888;2022-10-16T16:33:40;1.40;;;1.30;;
5245;SDS011;54412;51.206;6.888;2022-10-16T16:36:05;1.47;;;1.33;;
5245;SDS011;54412;51.206;6.888;2022-10-16T16:38:32;1.53;;;0.90;;
5245;SDS011;54412;51.206;6.888;2022-10-16T16:40:58;3.17;;;1.33;;
5245;SDS011;54412;51.206;6.888;2022-10-16T16:43:24;6.53;;;1.70;;
5245;SDS011;54412;51.206;6.888;2022-10-16T16:45:51;2.03;;;1.40;;
5245;SDS011;54412;51.206;6.888;2022-10-16T16:48:18;2.00;;;1.33;;
5245;SDS011;54412;51.206;6.888;2022-10-16T16:50:45;2.13;;;1.20;;
5245;SDS011;54412;51.206;6.888;2022-10-16T16:53:11;3.50;;;1.40;;
5245;SDS011;54412;51.206;6.888;2022-10-16T16:55:36;3.03;;;1.70;;
5245;SDS011;54412;51.206;6.888;2022-10-16T16:58:02;4.50;;;2.03;;
5245;SDS011;54412;51.206;6.888;2022-10-16T17:00:29;3.93;;;1.53;;
5245;SDS011;54412;51.206;6.888;2022-10-16T17:02:55;5.87;;;1.70;;
5245;SDS011;54412;51.206;6.888;2022-10-16T17:05:22;3.60;;;1.63;;
5245;SDS011;54412;51.206;6.888;2022-10-16T17:07:47;1.83;;;1.40;;
5245;SDS011;54412;51.206;6.888;2022-10-16T17:10:13;4.30;;;1.40;;
5245;SDS011;54412;51.206;6.888;2022-10-16T17:12:39;2.60;;;1.90;;